createdAt,value
2023-03-02T00:01:00.307Z,5.00
2023-03-02T00:03:28.891Z,5.00
2023-03-02T00:05:57.501Z,5.53
2023-03-02T00:08:25.216Z,4.93
2023-03-02T00:10:55.110Z,4.50
2023-03-02T00:13:22.675Z,4.50
2023-03-02T00:15:50.722Z,4.97
2023-03-02T00:18:18.228Z,4.10
2023-03-02T00:20:45.847Z,4.03
2023-03-02T00:23:14.438Z,4.78
2023-03-02T00:25:42.064Z,4.70
2023-03-02T00:28:09.697Z,6.30
2023-03-02T00:30:39.428Z,5.05
2023-03-02T00:33:07.207Z,5.05
2023-03-02T00:35:41.661Z,5.13
2023-03-02T00:38:09.990Z,6.57
2023-03-02T00:40:37.844Z,7.38
2023-03-02T00:43:05.420Z,5.57
2023-03-02T00:45:35.437Z,5.68
2023-03-02T00:48:03.646Z,5.57
2023-03-02T00:50:31.470Z,7.25
2023-03-02T00:52:59.403Z,6.47
2023-03-02T00:55:26.954Z,5.82
2023-03-02T00:57:57.322Z,4.70
2023-03-02T01:00:25.076Z,6.55
2023-03-02T01:02:53.340Z,5.10
2023-03-02T01:05:21.005Z,5.50
2023-03-02T01:07:48.739Z,5.03
2023-03-02T01:10:17.310Z,6.15
2023-03-02T01:12:46.678Z,5.25
2023-03-02T01:15:14.422Z,6.30
2023-03-02T01:17:43.620Z,4.35
2023-03-02T01:20:11.959Z,5.35
2023-03-02T01:22:39.781Z,5.15
2023-03-02T01:25:07.513Z,6.07
2023-03-02T01:27:35.126Z,7.45
2023-03-02T01:30:02.610Z,8.60
2023-03-02T01:32:30.259Z,6.40
2023-03-02T01:35:00.926Z,6.47
2023-03-02T01:37:28.474Z,6.88
2023-03-02T01:39:56.078Z,7.57
2023-03-02T01:42:23.691Z,7.57
2023-03-02T01:44:52.498Z,6.57
2023-03-02T01:47:26.702Z,6.82
2023-03-02T01:49:58.408Z,6.43
2023-03-02T01:52:30.500Z,5.65
2023-03-02T01:54:59.707Z,6.30
2023-03-02T01:57:30.300Z,6.43
2023-03-02T02:00:00.459Z,7.07
2023-03-02T02:02:28.105Z,5.75
2023-03-02T02:04:56.847Z,5.47
2023-03-02T02:07:24.487Z,5.82
2023-03-02T02:09:53.347Z,7.60
2023-03-02T02:12:22.279Z,6.60
2023-03-02T02:14:53.282Z,4.32
2023-03-02T02:17:20.804Z,4.93
2023-03-02T02:19:55.773Z,5.18
2023-03-02T02:22:38.322Z,6.20
2023-03-02T02:25:12.605Z,4.77
2023-03-02T02:27:40.124Z,6.15
2023-03-02T02:30:08.881Z,5.25
2023-03-02T02:32:38.728Z,5.30
2023-03-02T02:35:12.145Z,5.78
2023-03-02T02:40:10.943Z,5.88
2023-03-02T02:42:40.858Z,5.80
2023-03-02T02:45:18.386Z,6.75
2023-03-02T02:47:46.141Z,5.80
2023-03-02T02:50:21.513Z,5.85
2023-03-02T02:52:55.303Z,6.40
2023-03-02T02:55:24.326Z,7.47
2023-03-02T02:57:53.686Z,7.10
2023-03-02T03:00:22.154Z,4.70
2023-03-02T03:02:56.490Z,7.13
2023-03-02T03:05:24.022Z,5.13
2023-03-02T03:07:51.533Z,6.60
2023-03-02T03:10:30.121Z,4.50
2023-03-02T03:12:57.680Z,5.40
2023-03-02T03:15:25.249Z,5.70
2023-03-02T03:17:56.947Z,7.18
2023-03-02T03:20:25.472Z,7.70
2023-03-02T03:22:55.931Z,5.38
2023-03-02T03:25:26.296Z,5.25
2023-03-02T03:27:54.481Z,5.13
2023-03-02T03:30:24.187Z,5.47
2023-03-02T03:32:51.903Z,4.00
2023-03-02T03:35:19.554Z,5.95
2023-03-02T03:37:49.084Z,4.95
2023-03-02T03:40:16.610Z,4.53
2023-03-02T03:42:44.125Z,6.03
2023-03-02T03:45:11.749Z,4.85
2023-03-02T03:47:39.336Z,5.78
2023-03-02T03:50:06.938Z,6.78
2023-03-02T03:52:34.500Z,5.85
2023-03-02T03:55:02.359Z,5.50
2023-03-02T03:57:30.096Z,5.05
2023-03-02T03:59:57.627Z,5.35
2023-03-02T04:02:25.522Z,6.57
2023-03-02T04:04:53.161Z,5.38
2023-03-02T04:07:20.755Z,5.72
2023-03-02T04:09:48.954Z,5.32
2023-03-02T04:12:16.455Z,5.90
2023-03-02T04:14:43.996Z,5.38
2023-03-02T04:17:11.549Z,6.32
2023-03-02T04:19:39.066Z,5.95
2023-03-02T04:22:06.690Z,5.20
2023-03-02T04:24:34.166Z,6.78
2023-03-02T04:27:01.693Z,6.03
2023-03-02T04:29:29.445Z,5.80
2023-03-02T04:31:57.025Z,8.95
2023-03-02T04:34:26.169Z,6.47
2023-03-02T04:36:53.802Z,6.07
2023-03-02T04:39:21.286Z,5.85
2023-03-02T04:41:48.937Z,6.45
2023-03-02T04:44:17.074Z,6.90
2023-03-02T04:46:45.063Z,7.53
2023-03-02T04:49:13.177Z,8.05
2023-03-02T04:51:41.817Z,7.30
2023-03-02T04:54:14.096Z,7.40
2023-03-02T04:56:41.676Z,5.82
2023-03-02T04:59:09.430Z,7.50
2023-03-02T05:01:36.937Z,8.23
2023-03-02T05:04:05.112Z,8.00
2023-03-02T05:06:33.668Z,7.47
2023-03-02T05:09:01.450Z,8.80
2023-03-02T05:11:29.264Z,6.28
2023-03-02T05:13:59.027Z,7.00
2023-03-02T05:16:27.481Z,7.65
2023-03-02T05:18:54.974Z,8.40
2023-03-02T05:21:22.518Z,7.78
2023-03-02T05:23:50.099Z,6.45
2023-03-02T05:26:17.983Z,7.60
2023-03-02T05:28:48.368Z,7.53
2023-03-02T05:31:20.613Z,6.68
2023-03-02T05:33:48.558Z,8.65
2023-03-02T05:36:31.415Z,8.00
2023-03-02T05:38:59.189Z,8.40
2023-03-02T05:41:27.086Z,8.40
2023-03-02T05:43:54.683Z,9.35
2023-03-02T05:46:22.589Z,8.07
2023-03-02T05:48:50.142Z,7.38
2023-03-02T05:51:17.699Z,8.65
2023-03-02T05:53:45.987Z,9.25
2023-03-02T05:56:13.513Z,8.80
2023-03-02T05:58:41.027Z,8.05
2023-03-02T06:01:10.189Z,8.95
2023-03-02T06:03:37.671Z,8.00
2023-03-02T06:06:05.452Z,8.13
2023-03-02T06:08:35.972Z,10.85
2023-03-02T06:11:04.237Z,7.97
2023-03-02T06:13:31.767Z,7.38
2023-03-02T06:15:59.349Z,8.95
2023-03-02T06:18:26.913Z,8.88
2023-03-02T06:20:54.419Z,9.77
2023-03-02T06:23:22.009Z,8.95
2023-03-02T06:25:49.910Z,10.07
2023-03-02T06:28:19.865Z,7.53
2023-03-02T06:30:49.625Z,7.53
2023-03-02T06:33:18.715Z,7.80
2023-03-02T06:35:46.772Z,10.10
2023-03-02T06:38:14.462Z,7.53
2023-03-02T06:40:41.901Z,8.45
2023-03-02T06:43:12.469Z,8.68
2023-03-02T06:45:40.394Z,10.18
2023-03-02T06:48:08.305Z,10.63
2023-03-02T06:50:35.807Z,7.38
2023-03-02T06:53:03.497Z,9.52
2023-03-02T06:55:31.235Z,9.13
2023-03-02T06:57:58.837Z,10.90
2023-03-02T07:00:28.730Z,7.22
2023-03-02T07:02:57.000Z,10.35
2023-03-02T07:05:27.030Z,8.23
2023-03-02T07:07:54.886Z,10.48
2023-03-02T07:10:22.432Z,9.45
2023-03-02T07:12:49.987Z,9.18
2023-03-02T07:15:18.197Z,9.57
2023-03-02T07:17:46.352Z,8.63
2023-03-02T07:20:15.032Z,8.35
2023-03-02T07:22:42.835Z,9.15
2023-03-02T07:25:11.364Z,7.82
2023-03-02T07:27:38.945Z,8.10
2023-03-02T07:30:07.206Z,7.85
2023-03-02T07:32:34.842Z,8.48
2023-03-02T07:35:05.192Z,8.88
2023-03-02T07:37:32.778Z,7.38
2023-03-02T07:40:00.950Z,9.38
2023-03-02T07:42:28.673Z,7.85
2023-03-02T07:44:59.163Z,9.50
2023-03-02T07:47:26.702Z,8.88
2023-03-02T07:49:54.276Z,8.68
2023-03-02T07:52:21.802Z,8.93
2023-03-02T07:54:49.636Z,10.35
2023-03-02T07:57:18.778Z,9.05
2023-03-02T07:59:47.002Z,7.65
2023-03-02T08:02:15.966Z,11.02
2023-03-02T08:04:43.924Z,12.57
2023-03-02T08:07:11.494Z,9.45
2023-03-02T08:09:42.431Z,10.60
2023-03-02T08:12:10.832Z,10.10
2023-03-02T08:14:39.423Z,10.50
2023-03-02T08:17:07.521Z,9.50
2023-03-02T08:19:35.163Z,10.75
2023-03-02T08:22:02.992Z,11.45
2023-03-02T08:24:30.627Z,12.10
2023-03-02T08:27:00.689Z,9.45
2023-03-02T08:29:28.507Z,10.20
2023-03-02T08:31:56.240Z,10.23
2023-03-02T08:34:23.958Z,10.95
2023-03-02T08:36:51.555Z,8.88
2023-03-02T08:39:19.332Z,10.13
2023-03-02T08:41:46.911Z,10.68
2023-03-02T08:44:14.444Z,10.60
2023-03-02T08:46:41.939Z,8.70
2023-03-02T08:49:09.519Z,12.63
2023-03-02T08:51:37.033Z,13.27
2023-03-02T08:54:05.441Z,11.52
2023-03-02T08:56:34.528Z,13.82
2023-03-02T08:59:04.091Z,14.02
2023-03-02T09:01:33.801Z,13.45
2023-03-02T09:04:01.958Z,11.18
2023-03-02T09:06:30.312Z,15.05
2023-03-02T09:08:58.458Z,17.88
2023-03-02T09:11:26.480Z,15.27
2023-03-02T09:13:55.510Z,13.55
2023-03-02T09:16:24.949Z,13.35
2023-03-02T09:18:52.768Z,16.38
2023-03-02T09:21:20.723Z,12.23
2023-03-02T09:23:48.339Z,12.82
2023-03-02T09:26:15.987Z,10.73
2023-03-02T09:28:43.561Z,10.95
2023-03-02T09:31:12.148Z,11.95
2023-03-02T09:33:39.842Z,11.20
2023-03-02T09:36:08.346Z,10.15
2023-03-02T09:38:35.870Z,9.63
2023-03-02T09:41:03.391Z,10.48
2023-03-02T09:43:39.149Z,12.95
2023-03-02T09:46:13.871Z,12.10
2023-03-02T09:48:41.420Z,11.15
2023-03-02T09:51:16.436Z,10.52
2023-03-02T09:53:48.373Z,12.10
2023-03-02T09:56:17.542Z,9.55
2023-03-02T09:58:49.469Z,7.82
2023-03-02T10:01:18.474Z,9.05
2023-03-02T10:03:49.033Z,8.13
2023-03-02T10:06:16.640Z,10.25
2023-03-02T10:08:44.430Z,9.70
2023-03-02T10:11:22.362Z,11.10
2023-03-02T10:14:14.751Z,9.15
2023-03-02T10:16:46.503Z,10.75
2023-03-02T10:19:20.245Z,8.75
2023-03-02T10:21:50.403Z,11.77
2023-03-02T10:24:25.901Z,9.43
2023-03-02T10:26:55.557Z,9.10
2023-03-02T10:29:38.537Z,8.65
2023-03-02T10:32:15.783Z,12.38
2023-03-02T10:34:43.555Z,9.38
2023-03-02T10:37:14.084Z,10.23
2023-03-02T10:39:41.721Z,11.05
2023-03-02T10:42:14.360Z,11.57
2023-03-02T10:44:43.032Z,8.18
2023-03-02T10:47:20.322Z,11.80
2023-03-02T10:49:49.161Z,9.77
2023-03-02T10:52:17.956Z,11.23
2023-03-02T10:54:45.887Z,11.10
2023-03-02T10:57:35.993Z,10.43
2023-03-02T11:00:06.526Z,12.73
2023-03-02T11:02:35.658Z,8.80
2023-03-02T11:05:18.562Z,11.52
2023-03-02T11:08:12.406Z,9.38
2023-03-02T11:13:21.272Z,8.73
2023-03-02T11:15:50.033Z,10.02
2023-03-02T11:18:17.684Z,9.32
2023-03-02T11:20:47.553Z,10.00
2023-03-02T11:23:24.951Z,6.75
2023-03-02T11:25:57.594Z,8.82
2023-03-02T11:28:37.451Z,9.85
2023-03-02T11:31:09.435Z,10.32
2023-03-02T11:33:57.944Z,8.82
2023-03-02T11:36:48.763Z,9.30
2023-03-02T11:39:18.752Z,8.25
2023-03-02T11:41:46.604Z,8.40
2023-03-02T11:44:18.502Z,9.07
2023-03-02T11:46:47.852Z,9.27
2023-03-02T11:49:37.002Z,8.70
2023-03-02T11:52:04.692Z,10.60
2023-03-02T11:54:33.483Z,12.60
2023-03-02T11:57:02.740Z,10.27
2023-03-02T11:59:31.084Z,10.57
2023-03-02T12:02:00.511Z,11.95
2023-03-02T12:04:33.283Z,12.02
2023-03-02T12:07:02.625Z,11.27
2023-03-02T12:09:34.555Z,9.95
2023-03-02T12:12:20.303Z,10.13
2023-03-02T12:14:47.859Z,7.80
2023-03-02T12:17:27.675Z,12.43
2023-03-02T12:20:23.700Z,10.07
2023-03-02T12:22:51.725Z,10.70
2023-03-02T12:25:21.947Z,9.75
2023-03-02T12:27:50.833Z,9.20
2023-03-02T12:30:24.095Z,9.82
2023-03-02T12:35:19.511Z,8.23
2023-03-02T12:37:54.178Z,10.75
2023-03-02T12:40:40.331Z,9.70
2023-03-02T12:43:11.044Z,10.35
2023-03-02T12:45:45.280Z,8.15
2023-03-02T12:48:32.850Z,9.07
2023-03-02T12:51:01.860Z,12.68
2023-03-02T12:53:30.013Z,10.70
2023-03-02T12:55:58.011Z,11.10
2023-03-02T12:58:29.756Z,13.10
2023-03-02T13:01:00.923Z,10.50
2023-03-02T13:03:30.044Z,11.90
2023-03-02T13:06:05.278Z,10.27
2023-03-02T13:08:34.214Z,11.95
2023-03-02T13:11:03.521Z,12.50
2023-03-02T13:13:41.921Z,12.80
2023-03-02T13:16:26.595Z,11.73
2023-03-02T13:18:57.584Z,10.60
2023-03-02T13:21:44.058Z,12.77
2023-03-02T13:24:40.714Z,13.10
2023-03-02T13:27:08.988Z,10.80
2023-03-02T13:29:36.578Z,13.75
2023-03-02T13:32:22.936Z,16.13
2023-03-02T13:34:58.359Z,13.45
2023-03-02T13:37:41.186Z,14.23
2023-03-02T13:40:30.767Z,13.93
2023-03-02T13:42:58.367Z,14.27
2023-03-02T13:45:27.247Z,12.93
2023-03-02T13:47:55.581Z,13.45
2023-03-02T13:50:25.124Z,13.77
2023-03-02T13:52:53.143Z,13.77
2023-03-02T13:55:21.789Z,14.52
2023-03-02T13:57:50.497Z,13.18
2023-03-02T14:00:38.889Z,12.75
2023-03-02T14:03:14.775Z,12.93
2023-03-02T14:05:42.426Z,7.97
2023-03-02T14:08:10.619Z,9.85
2023-03-02T14:10:39.704Z,11.63
2023-03-02T14:13:09.195Z,9.40
2023-03-02T14:15:42.704Z,10.82
2023-03-02T14:18:25.326Z,9.05
2023-03-02T14:20:53.654Z,9.45
2023-03-02T14:23:21.166Z,9.93
2023-03-02T14:25:48.980Z,8.80
2023-03-02T14:28:21.820Z,8.55
2023-03-02T14:30:49.994Z,9.00
2023-03-02T14:33:20.891Z,7.47
2023-03-02T14:35:48.899Z,9.38
2023-03-02T14:38:16.589Z,9.13
2023-03-02T14:40:44.182Z,8.05
2023-03-02T14:43:11.721Z,7.50
2023-03-02T14:45:39.256Z,8.30
2023-03-02T14:48:06.872Z,9.48
2023-03-02T14:50:37.972Z,8.90
2023-03-02T14:53:07.192Z,8.35
2023-03-02T14:55:35.182Z,8.65
2023-03-02T14:58:02.729Z,8.20
2023-03-02T15:00:30.466Z,10.90
2023-03-02T15:03:01.050Z,8.20
2023-03-02T15:05:28.680Z,9.77
2023-03-02T15:07:58.756Z,8.05
2023-03-02T15:10:26.726Z,10.65
2023-03-02T15:12:54.964Z,10.00
2023-03-02T15:15:25.844Z,12.48
2023-03-02T15:17:56.052Z,11.98
2023-03-02T15:20:23.528Z,10.07
2023-03-02T15:22:51.066Z,10.65
2023-03-02T15:25:18.694Z,12.18
2023-03-02T15:27:47.045Z,11.15
2023-03-02T15:30:15.621Z,9.13
2023-03-02T15:32:43.286Z,11.73
2023-03-02T15:35:11.331Z,10.07
2023-03-02T15:37:39.202Z,12.05
2023-03-02T15:40:07.322Z,11.27
2023-03-02T15:42:35.001Z,11.43
2023-03-02T15:45:02.525Z,9.98
2023-03-02T15:47:30.021Z,9.32
2023-03-02T15:49:57.628Z,9.00
2023-03-02T15:52:25.267Z,10.18
2023-03-02T15:54:52.837Z,10.75
2023-03-02T15:57:20.419Z,10.43
2023-03-02T15:59:48.190Z,10.10
2023-03-02T16:02:16.437Z,10.88
2023-03-02T16:04:44.173Z,9.98
2023-03-02T16:07:11.802Z,8.68
2023-03-02T16:09:39.642Z,11.38
2023-03-02T16:12:07.475Z,12.77
2023-03-02T16:14:35.197Z,13.32
2023-03-02T16:17:02.782Z,11.43
2023-03-02T16:19:30.862Z,11.07
2023-03-02T16:21:58.528Z,12.25
2023-03-02T16:24:26.378Z,10.90
2023-03-02T16:26:54.267Z,15.55
2023-03-02T16:29:22.186Z,20.50
2023-03-02T16:31:49.980Z,13.40
2023-03-02T16:34:18.261Z,11.23
2023-03-02T16:36:46.166Z,11.07
2023-03-02T16:39:14.542Z,10.27
2023-03-02T16:41:46.912Z,13.30
2023-03-02T16:44:15.321Z,21.02
2023-03-02T16:46:44.046Z,12.65
2023-03-02T16:49:15.515Z,10.90
2023-03-02T16:51:43.430Z,16.15
2023-03-02T16:54:11.519Z,12.13
2023-03-02T16:56:45.823Z,14.48
2023-03-02T16:59:13.370Z,11.77
2023-03-02T17:01:41.330Z,12.15
2023-03-02T17:04:09.099Z,13.43
2023-03-02T17:06:36.744Z,10.93
2023-03-02T17:09:04.434Z,13.88
2023-03-02T17:11:33.296Z,11.95
2023-03-02T17:14:00.837Z,11.82
2023-03-02T17:16:30.881Z,10.73
2023-03-02T17:18:59.058Z,20.88
2023-03-02T17:21:27.377Z,11.27
2023-03-02T17:23:54.931Z,11.75
2023-03-02T17:26:22.621Z,8.75
2023-03-02T17:28:50.299Z,11.00
2023-03-02T17:31:17.851Z,11.32
2023-03-02T17:33:45.398Z,11.90
2023-03-02T17:36:13.258Z,10.30
2023-03-02T17:38:41.189Z,8.98
2023-03-02T17:41:09.912Z,16.42
2023-03-02T17:43:41.034Z,9.77
2023-03-02T17:46:13.114Z,11.30
2023-03-02T17:48:40.956Z,8.80
2023-03-02T17:51:08.485Z,10.68
2023-03-02T17:53:36.124Z,10.35
2023-03-02T17:56:03.659Z,13.55
2023-03-02T17:58:44.214Z,10.73
2023-03-02T18:01:13.488Z,9.10
2023-03-02T18:03:41.146Z,13.63
2023-03-02T18:06:08.782Z,12.45
2023-03-02T18:08:37.649Z,12.43
2023-03-02T18:11:05.940Z,9.65
2023-03-02T18:13:33.925Z,9.75
2023-03-02T18:16:01.473Z,11.27
2023-03-02T18:18:28.978Z,11.35
2023-03-02T18:20:56.466Z,9.43
2023-03-02T18:23:24.188Z,10.73
2023-03-02T18:25:51.728Z,9.55
2023-03-02T18:28:19.621Z,9.80
2023-03-02T18:30:47.232Z,7.53
2023-03-02T18:33:14.721Z,10.20
2023-03-02T18:35:42.783Z,10.15
2023-03-02T18:38:10.265Z,8.70
2023-03-02T18:40:37.882Z,8.02
2023-03-02T18:43:05.367Z,7.50
2023-03-02T18:45:34.220Z,6.32
2023-03-02T18:48:02.459Z,8.25
2023-03-02T18:50:30.496Z,9.60
2023-03-02T18:52:58.090Z,6.00
2023-03-02T18:55:26.329Z,5.85
2023-03-02T18:57:56.576Z,7.45
2023-03-02T19:00:27.928Z,8.48
2023-03-02T19:02:55.971Z,6.53
2023-03-02T19:05:25.858Z,8.43
2023-03-02T19:07:58.225Z,10.65
2023-03-02T19:10:25.812Z,6.95
2023-03-02T19:12:53.483Z,6.50
2023-03-02T19:15:21.175Z,6.93
2023-03-02T19:17:49.819Z,7.57
2023-03-02T19:20:17.543Z,7.70
2023-03-02T19:22:45.569Z,7.18
2023-03-02T19:25:13.119Z,7.30
2023-03-02T19:27:41.185Z,8.35
2023-03-02T19:30:09.786Z,5.90
2023-03-02T19:32:38.266Z,10.30
2023-03-02T19:35:06.231Z,8.02
2023-03-02T19:37:34.241Z,5.45
2023-03-02T19:40:01.817Z,6.38
2023-03-02T19:42:31.100Z,5.13
2023-03-02T19:44:58.804Z,6.55
2023-03-02T19:47:30.601Z,6.60
2023-03-02T19:49:58.085Z,6.05
2023-03-02T19:52:26.746Z,6.22
2023-03-02T19:54:54.317Z,5.88
2023-03-02T19:57:21.830Z,7.30
2023-03-02T19:59:49.345Z,6.07
2023-03-02T20:02:17.267Z,8.25
2023-03-02T20:04:45.756Z,8.23
2023-03-02T20:07:14.028Z,5.22
2023-03-02T20:09:43.332Z,7.03
2023-03-02T20:12:12.319Z,6.35
2023-03-02T20:14:42.134Z,7.00
2023-03-02T20:17:09.620Z,8.45
2023-03-02T20:19:37.317Z,6.55
2023-03-02T20:22:07.648Z,5.35
2023-03-02T20:24:35.109Z,6.22
2023-03-02T20:27:03.940Z,7.93
2023-03-02T20:29:31.491Z,6.07
2023-03-02T20:31:59.765Z,6.20
2023-03-02T20:34:27.314Z,6.75
2023-03-02T20:36:54.923Z,6.10
2023-03-02T20:39:30.787Z,5.90
2023-03-02T20:42:01.459Z,5.53
2023-03-02T20:44:31.848Z,6.07
2023-03-02T20:47:01.241Z,8.18
2023-03-02T20:49:29.705Z,7.47
2023-03-02T20:51:58.650Z,6.70
2023-03-02T20:54:28.286Z,7.97
2023-03-02T20:56:56.007Z,7.68
2023-03-02T20:59:23.668Z,9.32
2023-03-02T21:01:52.759Z,10.40
2023-03-02T21:04:20.423Z,11.90
2023-03-02T21:06:48.436Z,9.82
2023-03-02T21:09:16.076Z,8.38
2023-03-02T21:11:43.622Z,9.50
2023-03-02T21:14:15.397Z,10.68
2023-03-02T21:16:44.440Z,7.32
2023-03-02T21:19:14.722Z,8.63
2023-03-02T21:21:43.080Z,10.48
2023-03-02T21:24:11.916Z,10.10
2023-03-02T21:26:39.884Z,8.43
2023-03-02T21:29:09.076Z,10.52
2023-03-02T21:31:36.716Z,8.50
2023-03-02T21:34:04.363Z,10.88
2023-03-02T21:36:34.253Z,12.73
2023-03-02T21:39:02.567Z,4.80
2023-03-02T21:41:30.054Z,11.48
2023-03-02T21:43:58.420Z,7.15
2023-03-02T21:46:26.017Z,6.05
2023-03-02T21:48:53.961Z,15.35
2023-03-02T21:51:21.763Z,7.55
2023-03-02T21:53:53.890Z,15.75
2023-03-02T21:56:23.115Z,10.00
2023-03-02T21:58:51.203Z,6.53
2023-03-02T22:01:19.558Z,4.10
2023-03-02T22:03:47.233Z,7.68
2023-03-02T22:06:19.543Z,6.15
2023-03-02T22:08:47.275Z,6.67
2023-03-02T22:11:21.172Z,9.27
2023-03-02T22:13:49.372Z,5.10
2023-03-02T22:16:21.213Z,4.88
2023-03-02T22:18:50.161Z,5.72
2023-03-02T22:21:37.900Z,5.97
2023-03-02T22:24:11.823Z,7.68
2023-03-02T22:26:50.332Z,4.90
2023-03-02T22:29:21.752Z,6.10
2023-03-02T22:31:56.089Z,8.27
2023-03-02T22:34:27.928Z,4.85
2023-03-02T22:37:11.833Z,4.93
2023-03-02T22:39:41.963Z,4.97
2023-03-02T22:42:15.915Z,4.30
2023-03-02T22:44:45.881Z,3.22
2023-03-02T22:47:19.225Z,3.63
2023-03-02T22:49:47.388Z,4.03
2023-03-02T22:52:19.835Z,3.10
2023-03-02T22:54:47.696Z,3.65
2023-03-02T22:57:27.045Z,2.05
2023-03-02T23:00:03.355Z,2.45
2023-03-02T23:02:31.154Z,6.35
2023-03-02T23:04:59.289Z,3.65
2023-03-02T23:07:29.669Z,2.28
2023-03-02T23:09:59.911Z,4.22
2023-03-02T23:12:28.318Z,3.60
2023-03-02T23:15:02.885Z,2.38
2023-03-02T23:17:40.992Z,2.05
2023-03-02T23:20:13.381Z,2.28
2023-03-02T23:22:40.889Z,1.50
2023-03-02T23:25:09.403Z,1.35
2023-03-02T23:27:36.977Z,2.28
2023-03-02T23:30:04.940Z,2.72
2023-03-02T23:32:32.526Z,4.30
2023-03-02T23:35:00.156Z,1.88
2023-03-02T23:37:28.346Z,3.67
2023-03-02T23:39:55.872Z,2.60
2023-03-02T23:42:23.476Z,2.38
2023-03-02T23:44:51.046Z,1.60
2023-03-02T23:47:18.588Z,2.50
2023-03-02T23:49:48.710Z,1.10
2023-03-02T23:52:16.390Z,2.38
2023-03-02T23:54:46.935Z,5.20
2023-03-02T23:57:14.681Z,1.25
2023-03-02T23:59:42.413Z,1.85
